Time;durP1;ratioP1;P1;durP2;ratioP2;P2;SDS_P1;SDS_P2;PMS_P1;PMS_P2;Temp;Humidity;BMP_temperature;BMP_pressure;BME280_temperature;BME280_humidity;BME280_pressure;Samples;Min_cycle;Max_cycle;Signal;HPM_P1;HPM_P2
2022/03/30 00:01:28;;;;;;;32.20;14.27;;;;;;;;;;6210758;28;20046;-79
2022/03/30 00:04:30;;;;;;;33.78;14.23;;;;;;;;;;6210812;28;20050;-81
2022/03/30 00:07:32;;;;;;;32.60;14.77;;;;;;;;;;6211634;28;20204;-79
2022/03/30 00:10:34;;;;;;;30.80;13.45;;;;;;;;;;6209171;28;20125;-79
2022/03/30 00:13:36;;;;;;;34.55;14.90;;;;;;;;;;6211366;28;20041;-80
2022/03/30 00:16:38;;;;;;;33.28;13.38;;;;;;;;;;6212017;28;20146;-80
2022/03/30 00:19:40;;;;;;;33.10;14.13;;;;;;;;;;6212117;28;20423;-80
2022/03/30 00:22:42;;;;;;;31.75;13.90;;;;;;;;;;6211362;28;20131;-81
2022/03/30 00:25:44;;;;;;;38.50;14.55;;;;;;;;;;6209254;28;20100;-81
2022/03/30 00:28:45;;;;;;;34.75;14.02;;;;;;;;;;6208478;28;20119;-79
2022/03/30 00:31:47;;;;;;;34.58;15.13;;;;;;;;;;6207965;28;20046;-79
2022/03/30 00:34:49;;;;;;;33.85;14.57;;;;;;;;;;6205236;28;20050;-81
2022/03/30 00:37:51;;;;;;;37.63;14.63;;;;;;;;;;6208212;28;20443;-81
2022/03/30 00:40:53;;;;;;;36.30;13.43;;;;;;;;;;6207242;28;20380;-79
2022/03/30 00:43:54;;;;;;;39.47;15.15;;;;;;;;;;6206050;28;20468;-80
2022/03/30 00:46:56;;;;;;;33.35;14.38;;;;;;;;;;6231869;28;20106;-79
2022/03/30 00:49:58;;;;;;;38.38;15.80;;;;;;;;;;6256239;28;20079;-81
2022/03/30 00:52:59;;;;;;;31.23;13.98;;;;;;;;;;6240154;28;20134;-78
2022/03/30 00:56:01;;;;;;;35.70;14.88;;;;;;;;;;6233084;28;20045;-79
2022/03/30 00:59:05;;;;;;;37.90;14.80;;;;;;;;;;6223740;28;20141;-80
2022/03/30 01:02:09;;;;;;;36.17;15.73;;;;;;;;;;6209644;28;20042;-79
2022/03/30 01:05:12;;;;;;;35.22;15.10;;;;;;;;;;6208688;28;20050;-77
2022/03/30 01:08:17;;;;;;;41.53;16.70;;;;;;;;;;6225449;28;20045;-79
2022/03/30 01:11:18;;;;;;;42.63;16.60;;;;;;;;;;6233839;28;20602;-79
2022/03/30 01:14:21;;;;;;;39.20;15.52;;;;;;;;;;6225915;28;20140;-79
2022/03/30 01:17:22;;;;;;;37.60;16.50;;;;;;;;;;6234515;28;20037;-78
2022/03/30 01:20:25;;;;;;;38.20;15.93;;;;;;;;;;6233724;28;20490;-77
2022/03/30 01:23:32;;;;;;;45.92;16.90;;;;;;;;;;6235980;28;20049;-77
2022/03/30 01:26:35;;;;;;;39.85;15.85;;;;;;;;;;6237390;28;20562;-79
2022/03/30 01:32:59;;;;;;;46.67;17.85;;;;;;;;;;6215241;28;20833;-78
2022/03/30 01:36:00;;;;;;;;;;;;;;;;;;6216265;28;20185;-79
2022/03/30 01:39:04;;;;;;;44.13;16.08;;;;;;;;;;6230482;28;19925;-80
2022/03/30 01:42:06;;;;;;;39.47;16.08;;;;;;;;;;6243289;28;20123;-78
2022/03/30 01:45:11;;;;;;;41.33;16.92;;;;;;;;;;6241417;28;20065;-82
2022/03/30 01:48:13;;;;;;;38.95;16.77;;;;;;;;;;6244349;28;20041;-81
2022/03/30 01:51:15;;;;;;;41.65;17.08;;;;;;;;;;6244035;28;20118;-79
2022/03/30 01:54:19;;;;;;;42.33;17.10;;;;;;;;;;6224362;28;20050;-80
2022/03/30 01:57:21;;;;;;;47.85;17.77;;;;;;;;;;6244774;28;20131;-78
2022/03/30 02:00:24;;;;;;;45.03;16.92;;;;;;;;;;6224559;28;20054;-79
2022/03/30 02:03:27;;;;;;;44.65;17.75;;;;;;;;;;6218536;28;20100;-81
2022/03/30 02:06:29;;;;;;;;;;;;;;;;;;6219039;28;20075;-80
2022/03/30 02:09:32;;;;;;;43.60;17.23;;;;;;;;;;6219468;28;20004;-80
2022/03/30 02:12:34;;;;;;;44.33;16.67;;;;;;;;;;6225530;28;20069;-79
2022/03/30 02:15:35;;;;;;;39.28;17.50;;;;;;;;;;6254700;28;20546;-79
2022/03/30 02:18:38;;;;;;;47.70;17.80;;;;;;;;;;6268599;28;20144;-80
2022/03/30 02:21:41;;;;;;;43.90;17.33;;;;;;;;;;6267834;28;20124;-79
2022/03/30 02:24:42;;;;;;;40.13;17.55;;;;;;;;;;6218906;28;20122;-79
2022/03/30 02:27:44;;;;;;;43.45;17.13;;;;;;;;;;6219228;28;20117;-81
2022/03/30 02:30:47;;;;;;;42.50;18.15;;;;;;;;;;6216902;28;20046;-82
2022/03/30 02:33:49;;;;;;;42.83;18.23;;;;;;;;;;6217634;28;20187;-79
2022/03/30 02:36:50;;;;;;;45.28;17.45;;;;;;;;;;6217407;28;20118;-82
2022/03/30 02:39:52;;;;;;;43.53;18.08;;;;;;;;;;6217851;28;20573;-79
2022/03/30 02:42:54;;;;;;;51.47;18.92;;;;;;;;;;6217351;28;20586;-79
2022/03/30 02:45:55;;;;;;;41.70;17.65;;;;;;;;;;6225051;28;20049;-80
2022/03/30 02:48:57;;;;;;;47.35;18.83;;;;;;;;;;6266329;28;20055;-79
2022/03/30 02:51:59;;;;;;;42.80;17.05;;;;;;;;;;6266345;28;20122;-79
2022/03/30 02:55:00;;;;;;;46.75;19.10;;;;;;;;;;6216501;28;20155;-79
2022/03/30 02:58:04;;;;;;;48.75;17.42;;;;;;;;;;6217147;28;20205;-78
2022/03/30 03:01:05;;;;;;;44.15;18.67;;;;;;;;;;6217142;28;20088;-80
2022/03/30 03:04:07;;;;;;;50.38;18.67;;;;;;;;;;6217571;28;20050;-79
2022/03/30 03:07:09;;;;;;;48.10;18.35;;;;;;;;;;6215446;28;20231;-79
2022/03/30 03:10:10;;;;;;;44.65;18.25;;;;;;;;;;6217612;28;20144;-80
2022/03/30 03:13:13;;;;;;;49.95;19.60;;;;;;;;;;6216373;28;20046;-81
2022/03/30 03:16:15;;;;;;;52.72;18.92;;;;;;;;;;6239429;28;20115;-79
2022/03/30 03:19:17;;;;;;;51.30;18.65;;;;;;;;;;6241847;28;20042;-81
2022/03/30 03:22:18;;;;;;;48.17;17.67;;;;;;;;;;6234179;28;20049;-78
2022/03/30 03:25:27;;;;;;;49.92;19.13;;;;;;;;;;6216044;28;20037;-78
2022/03/30 03:28:30;;;;;;;50.40;19.45;;;;;;;;;;6217188;28;20049;-79
2022/03/30 03:31:31;;;;;;;50.17;18.38;;;;;;;;;;6217407;28;20111;-81
2022/03/30 03:34:33;;;;;;;45.35;18.52;;;;;;;;;;6216903;28;20042;-79
2022/03/30 03:37:39;;;;;;;50.08;18.52;;;;;;;;;;6217043;28;20046;-78
2022/03/30 03:40:40;;;;;;;48.03;18.58;;;;;;;;;;6216342;28;20062;-80
2022/03/30 03:43:42;;;;;;;51.35;19.25;;;;;;;;;;6215554;28;20128;-79
2022/03/30 03:46:43;;;;;;;46.20;17.65;;;;;;;;;;6237512;28;20072;-79
2022/03/30 03:49:45;;;;;;;46.35;17.98;;;;;;;;;;6265260;28;20063;-81
2022/03/30 03:52:48;;;;;;;43.65;18.30;;;;;;;;;;6261264;28;20159;-79
2022/03/30 03:55:54;;;;;;;55.83;18.98;;;;;;;;;;6241119;28;20045;-79
2022/03/30 03:58:56;;;;;;;48.63;18.67;;;;;;;;;;6233169;28;20050;-79
2022/03/30 04:01:59;;;;;;;46.10;18.08;;;;;;;;;;6215795;28;20180;-80
2022/03/30 04:05:02;;;;;;;50.05;18.98;;;;;;;;;;6216780;28;20048;-81
2022/03/30 04:08:04;;;;;;;54.05;18.92;;;;;;;;;;6212912;28;20136;-80
2022/03/30 04:11:05;;;;;;;49.42;19.60;;;;;;;;;;6229354;28;20128;-79
2022/03/30 04:14:08;;;;;;;49.33;19.15;;;;;;;;;;6234204;28;20045;-80
2022/03/30 04:17:11;;;;;;;48.63;18.60;;;;;;;;;;6239296;28;20119;-79
2022/03/30 04:20:13;;;;;;;;;;;;;;;;;;6240615;28;20116;-79
2022/03/30 04:23:15;;;;;;;47.10;17.58;;;;;;;;;;6232813;28;19975;-80
2022/03/30 04:26:16;;;;;;;47.65;18.58;;;;;;;;;;6215340;28;20131;-79
2022/03/30 04:29:18;;;;;;;51.72;19.48;;;;;;;;;;6223031;28;20518;-80
2022/03/30 04:32:19;;;;;;;52.92;19.08;;;;;;;;;;6239678;28;20052;-80
2022/03/30 04:35:27;;;;;;;50.25;18.52;;;;;;;;;;6240643;28;20072;-79
2022/03/30 04:38:30;;;;;;;48.20;17.58;;;;;;;;;;6224841;28;20049;-78
2022/03/30 04:41:32;;;;;;;48.50;18.97;;;;;;;;;;6219223;28;20045;-80
2022/03/30 04:44:35;;;;;;;49.00;18.38;;;;;;;;;;6222481;28;20045;-79
2022/03/30 04:47:37;;;;;;;53.42;19.45;;;;;;;;;;6257715;28;20513;-78
2022/03/30 04:50:38;;;;;;;50.63;18.45;;;;;;;;;;6241225;28;20260;-79
2022/03/30 04:53:40;;;;;;;45.55;18.20;;;;;;;;;;6214712;28;20041;-79
2022/03/30 04:56:42;;;;;;;56.25;19.00;;;;;;;;;;6215921;28;20056;-79
2022/03/30 04:59:43;;;;;;;55.45;18.58;;;;;;;;;;6224402;28;20037;-77
2022/03/30 05:02:45;;;;;;;52.40;18.98;;;;;;;;;;6232412;28;20049;-80
2022/03/30 05:05:47;;;;;;;47.35;18.90;;;;;;;;;;6228034;28;20578;-79
2022/03/30 05:08:49;;;;;;;46.88;19.08;;;;;;;;;;6209803;28;20054;-80
2022/03/30 05:11:51;;;;;;;50.03;18.80;;;;;;;;;;6245209;28;20192;-78
2022/03/30 05:14:53;;;;;;;48.08;18.63;;;;;;;;;;6289929;28;20106;-77
2022/03/30 05:17:55;;;;;;;53.90;19.73;;;;;;;;;;6316086;28;20040;-77
2022/03/30 05:20:56;;;;;;;51.97;20.30;;;;;;;;;;6295625;28;20139;-80
2022/03/30 05:23:58;;;;;;;58.17;20.25;;;;;;;;;;6292129;28;20076;-77
2022/03/30 05:26:59;;;;;;;51.70;19.42;;;;;;;;;;6287352;28;20159;-80
2022/03/30 05:30:02;;;;;;;50.30;20.17;;;;;;;;;;6303817;28;20094;-78
2022/03/30 05:33:04;;;;;;;52.50;18.30;;;;;;;;;;6320192;28;20052;-79
2022/03/30 05:36:07;;;;;;;52.08;19.02;;;;;;;;;;6313940;28;20129;-79
2022/03/30 05:39:10;;;;;;;43.88;17.70;;;;;;;;;;6279882;28;20482;-78
2022/03/30 05:42:14;;;;;;;53.10;18.80;;;;;;;;;;6270049;28;20047;-77
2022/03/30 05:45:18;;;;;;;46.10;17.90;;;;;;;;;;6287443;28;20045;-78
2022/03/30 05:48:21;;;;;;;;;;;;;;;;;;6295059;28;20481;-79
2022/03/30 05:51:25;;;;;;;45.58;17.13;;;;;;;;;;6308349;28;19924;-78
2022/03/30 05:54:27;;;;;;;46.30;17.85;;;;;;;;;;6286993;28;20135;-77
2022/03/30 05:57:29;;;;;;;52.40;18.95;;;;;;;;;;6287601;28;20048;-78
2022/03/30 06:00:31;;;;;;;55.33;18.75;;;;;;;;;;6295527;28;20036;-78
2022/03/30 06:03:37;;;;;;;54.47;17.05;;;;;;;;;;6306192;28;20444;-77
2022/03/30 06:06:39;;;;;;;53.70;20.23;;;;;;;;;;6317237;28;20047;-78
2022/03/30 06:09:41;;;;;;;49.72;19.27;;;;;;;;;;6298625;28;20117;-79
2022/03/30 06:12:49;;;;;;;64.32;20.50;;;;;;;;;;6311301;28;20040;-79
2022/03/30 06:15:50;;;;;;;51.15;18.42;;;;;;;;;;6298561;28;20086;-79
2022/03/30 06:18:52;;;;;;;47.28;17.88;;;;;;;;;;6302667;28;20649;-78
2022/03/30 06:21:54;;;;;;;44.10;17.75;;;;;;;;;;6291432;28;20052;-77
2022/03/30 06:24:56;;;;;;;48.92;16.90;;;;;;;;;;6291806;28;20040;-80
2022/03/30 06:27:58;;;;;;;49.63;18.13;;;;;;;;;;6292087;28;20508;-79
2022/03/30 06:31:00;;;;;;;47.88;17.58;;;;;;;;;;6297954;28;20127;-79
2022/03/30 06:34:03;;;;;;;47.28;19.15;;;;;;;;;;6323803;28;20050;-79
2022/03/30 06:37:06;;;;;;;51.25;19.10;;;;;;;;;;6342616;28;20155;-80
2022/03/30 06:40:08;;;;;;;49.70;18.80;;;;;;;;;;6289677;28;20040;-80
2022/03/30 06:43:10;;;;;;;44.30;16.90;;;;;;;;;;6308663;28;20155;-80
2022/03/30 06:46:16;;;;;;;39.35;17.02;;;;;;;;;;6304725;28;20051;-81
2022/03/30 06:49:19;;;;;;;42.17;17.92;;;;;;;;;;6342187;28;20057;-82
2022/03/30 06:52:20;;;;;;;44.95;18.15;;;;;;;;;;6340145;28;20071;-80
2022/03/30 06:55:22;;;;;;;40.78;16.90;;;;;;;;;;6296543;28;20110;-79
2022/03/30 06:58:24;;;;;;;41.25;16.98;;;;;;;;;;6271209;28;20127;-78
2022/03/30 07:01:26;;;;;;;43.33;16.73;;;;;;;;;;6292672;28;20122;-77
2022/03/30 07:04:28;;;;;;;39.50;16.70;;;;;;;;;;6296334;28;20041;-79
2022/03/30 07:10:50;;;;;;;40.78;15.25;;;;;;;;;;6306347;28;20043;-78
2022/03/30 07:13:52;;;;;;;38.85;15.90;;;;;;;;;;6309272;28;20124;-80
2022/03/30 07:16:54;;;;;;;39.45;16.05;;;;;;;;;;6331874;28;20126;-80
2022/03/30 07:19:56;;;;;;;40.67;17.40;;;;;;;;;;6289208;28;20126;-80
2022/03/30 07:22:58;;;;;;;42.08;16.42;;;;;;;;;;6306080;28;20064;-82
2022/03/30 07:26:00;;;;;;;45.88;17.02;;;;;;;;;;6297631;28;20064;-79
2022/03/30 07:29:02;;;;;;;38.42;16.27;;;;;;;;;;6289491;28;20059;-77
2022/03/30 07:32:04;;;;;;;42.85;16.98;;;;;;;;;;6286969;28;20076;-78
2022/03/30 07:35:07;;;;;;;41.45;16.83;;;;;;;;;;6313800;28;20070;-78
2022/03/30 07:38:09;;;;;;;41.22;17.10;;;;;;;;;;6314236;28;20043;-79
2022/03/30 07:41:11;;;;;;;39.67;16.42;;;;;;;;;;6314435;28;20044;-76
2022/03/30 07:44:12;;;;;;;36.53;15.48;;;;;;;;;;6313249;28;20103;-77
2022/03/30 07:47:14;;;;;;;38.00;15.73;;;;;;;;;;6326639;28;20159;-78
2022/03/30 07:50:17;;;;;;;41.28;16.80;;;;;;;;;;6312724;28;20052;-79
2022/03/30 07:53:18;;;;;;;42.28;16.63;;;;;;;;;;6316512;28;20545;-78
2022/03/30 07:56:20;;;;;;;40.03;17.15;;;;;;;;;;6316360;28;20121;-78
2022/03/30 07:59:22;;;;;;;37.22;15.20;;;;;;;;;;6335456;28;20056;-79
2022/03/30 08:02:26;;;;;;;37.15;15.27;;;;;;;;;;6313212;28;20036;-78
2022/03/30 08:05:28;;;;;;;39.50;16.60;;;;;;;;;;6314758;28;20043;-78
2022/03/30 08:08:29;;;;;;;39.05;15.88;;;;;;;;;;6339100;28;20177;-78
2022/03/30 08:11:31;;;;;;;37.22;15.68;;;;;;;;;;6319682;28;20040;-79
2022/03/30 08:14:33;;;;;;;37.17;15.65;;;;;;;;;;6330856;28;20092;-79
2022/03/30 08:17:36;;;;;;;37.47;15.80;;;;;;;;;;6338903;27;20051;-78
2022/03/30 08:23:58;;;;;;;32.90;15.43;;;;;;;;;;6330495;28;20447;-78
2022/03/30 08:26:59;;;;;;;35.58;14.98;;;;;;;;;;6341687;28;20048;-79
2022/03/30 08:30:03;;;;;;;39.05;16.27;;;;;;;;;;6316245;28;20067;-77
2022/03/30 08:33:05;;;;;;;39.22;14.85;;;;;;;;;;6340611;28;20047;-78
2022/03/30 08:36:08;;;;;;;32.10;14.73;;;;;;;;;;6338921;28;20048;-78
2022/03/30 08:39:12;;;;;;;32.35;13.75;;;;;;;;;;6297228;28;20215;-80
2022/03/30 08:42:15;;;;;;;30.65;12.93;;;;;;;;;;6314532;28;20044;-80
2022/03/30 08:45:17;;;;;;;33.47;13.40;;;;;;;;;;6314419;28;20044;-80
2022/03/30 08:48:19;;;;;;;29.25;13.50;;;;;;;;;;6339550;28;20067;-78
2022/03/30 08:51:21;;;;;;;29.15;12.43;;;;;;;;;;6335364;28;20048;-79
2022/03/30 08:54:23;;;;;;;24.70;11.73;;;;;;;;;;6297730;28;20059;-79
2022/03/30 08:57:30;;;;;;;31.75;12.98;;;;;;;;;;6315483;28;20039;-80
2022/03/30 09:00:34;;;;;;;27.25;12.32;;;;;;;;;;6314893;28;20126;-80
2022/03/30 09:03:36;;;;;;;32.60;13.75;;;;;;;;;;6333643;28;20107;-79
2022/03/30 09:06:44;;;;;;;49.10;20.58;;;;;;;;;;6340823;28;20173;-80
2022/03/30 09:09:46;;;;;;;30.00;14.07;;;;;;;;;;6315692;28;20121;-78
2022/03/30 09:13:14;;;;;;;31.52;14.65;;;;;;;;;;6316663;28;20074;-79
2022/03/30 09:16:16;;;;;;;31.75;14.85;;;;;;;;;;6331339;28;20047;-77
2022/03/30 09:19:20;;;;;;;36.05;14.23;;;;;;;;;;6298223;28;20040;-79
2022/03/30 09:22:22;;;;;;;29.70;13.38;;;;;;;;;;6314457;28;20074;-79
2022/03/30 09:25:31;;;;;;;31.20;13.32;;;;;;;;;;6322752;28;20528;-78
2022/03/30 09:28:33;;;;;;;29.73;15.60;;;;;;;;;;6334861;28;20196;-77
2022/03/30 09:31:36;;;;;;;31.13;14.20;;;;;;;;;;6331439;28;20112;-77
2022/03/30 09:34:49;;;;;;;29.35;14.30;;;;;;;;;;6340961;28;20046;-80
2022/03/30 09:38:21;;;;;;;27.92;12.13;;;;;;;;;;6332898;28;20059;-77
2022/03/30 09:41:23;;;;;;;27.35;13.85;;;;;;;;;;6300596;28;20095;-77
2022/03/30 09:44:28;;;;;;;26.20;13.50;;;;;;;;;;6321047;28;20131;-79
2022/03/30 09:47:38;;;;;;;29.75;14.93;;;;;;;;;;6338131;28;20043;-78
2022/03/30 09:50:48;;;;;;;29.05;14.43;;;;;;;;;;6344782;28;20099;-78
2022/03/30 09:53:50;;;;;;;29.20;12.75;;;;;;;;;;6333539;28;20124;-80
2022/03/30 09:56:52;;;;;;;24.23;13.00;;;;;;;;;;6328768;28;20104;-77
2022/03/30 10:00:12;;;;;;;23.02;12.52;;;;;;;;;;6317196;28;20121;-79
2022/03/30 10:03:14;;;;;;;26.65;12.50;;;;;;;;;;6328993;28;20112;-78
2022/03/30 10:06:33;;;;;;;23.92;12.05;;;;;;;;;;6335265;28;20050;-79
2022/03/30 10:09:42;;;;;;;24.55;12.15;;;;;;;;;;6323139;28;20051;-80
2022/03/30 10:12:44;;;;;;;26.67;13.07;;;;;;;;;;6316573;28;20249;-78
2022/03/30 10:15:47;;;;;;;23.00;12.57;;;;;;;;;;6332854;28;20161;-79
2022/03/30 10:18:51;;;;;;;26.65;11.65;;;;;;;;;;6331702;27;20096;-77
2022/03/30 10:22:02;;;;;;;23.60;11.00;;;;;;;;;;6367126;27;20088;-78
2022/03/30 10:25:32;;;;;;;22.52;10.70;;;;;;;;;;6350331;27;20131;-76
2022/03/30 10:28:43;;;;;;;21.75;10.43;;;;;;;;;;6336573;28;20055;-77
2022/03/30 10:32:12;;;;;;;18.90;9.60;;;;;;;;;;6301494;28;20047;-77
2022/03/30 10:35:14;;;;;;;19.58;10.73;;;;;;;;;;6311236;28;20139;-79
2022/03/30 10:38:16;;;;;;;27.75;11.15;;;;;;;;;;6334155;28;20128;-79
2022/03/30 10:41:18;;;;;;;22.85;10.35;;;;;;;;;;6316084;28;20083;-80
2022/03/30 10:44:59;;;;;;;26.85;11.05;;;;;;;;;;6328303;28;20051;-77
2022/03/30 10:48:09;;;;;;;20.33;9.88;;;;;;;;;;6335595;28;20047;-78
2022/03/30 10:51:13;;;;;;;18.90;9.38;;;;;;;;;;6334583;28;20048;-81
2022/03/30 10:54:29;;;;;;;21.02;9.88;;;;;;;;;;6313305;28;20048;-78
2022/03/30 10:57:51;;;;;;;18.30;9.50;;;;;;;;;;6328210;28;20036;-78
2022/03/30 11:01:12;;;;;;;20.20;10.63;;;;;;;;;;6308121;28;20512;-79
2022/03/30 11:04:19;;;;;;;18.58;10.02;;;;;;;;;;6310382;28;20065;-79
2022/03/30 11:07:21;;;;;;;21.17;10.15;;;;;;;;;;6304598;28;20041;-77
2022/03/30 11:10:45;;;;;;;19.77;9.60;;;;;;;;;;6295651;28;20194;-81
2022/03/30 11:13:46;;;;;;;18.02;9.23;;;;;;;;;;6306456;28;20246;-78
2022/03/30 11:16:49;;;;;;;19.95;10.35;;;;;;;;;;6291077;28;20581;-79
2022/03/30 11:19:55;;;;;;;;;;;;;;;;;;6287899;28;20045;-77
2022/03/30 11:23:20;;;;;;;17.88;9.07;;;;;;;;;;6287170;28;20038;-78
2022/03/30 11:26:23;;;;;;;18.60;9.77;;;;;;;;;;6292030;28;20044;-77
2022/03/30 11:29:48;;;;;;;23.73;10.75;;;;;;;;;;6286405;28;20322;-78
2022/03/30 11:32:50;;;;;;;18.98;10.82;;;;;;;;;;6284160;28;20048;-78
2022/03/30 11:35:52;;;;;;;21.13;10.60;;;;;;;;;;6293165;28;20135;-79
2022/03/30 11:38:59;;;;;;;19.30;10.48;;;;;;;;;;6299263;28;20048;-79
2022/03/30 11:42:01;;;;;;;21.40;10.52;;;;;;;;;;6314599;28;20048;-80
2022/03/30 11:45:14;;;;;;;19.33;10.90;;;;;;;;;;6322442;28;20047;-78
2022/03/30 11:48:15;;;;;;;21.90;11.05;;;;;;;;;;6316442;28;20044;-78
2022/03/30 11:51:23;;;;;;;19.42;10.88;;;;;;;;;;6316995;28;20845;-79
2022/03/30 11:54:27;;;;;;;20.95;11.10;;;;;;;;;;6318780;28;20060;-80
2022/03/30 11:57:28;;;;;;;21.02;11.23;;;;;;;;;;6318886;28;20199;-81
2022/03/30 12:00:32;;;;;;;21.38;11.10;;;;;;;;;;6315061;28;20044;-82
2022/03/30 12:03:35;;;;;;;21.15;11.52;;;;;;;;;;6301206;28;20036;-80
2022/03/30 12:06:44;;;;;;;;;;;;;;;;;;6301248;28;20036;-81
2022/03/30 12:09:47;;;;;;;21.70;11.00;;;;;;;;;;6306280;28;20016;-78
2022/03/30 12:12:49;;;;;;;;;;;;;;;;;;6312126;28;20044;-80
2022/03/30 12:16:11;;;;;;;20.42;10.60;;;;;;;;;;6306346;28;19996;-78
2022/03/30 12:19:16;;;;;;;20.47;10.97;;;;;;;;;;6312680;28;20040;-80
2022/03/30 12:22:18;;;;;;;20.27;10.45;;;;;;;;;;6310756;28;20127;-78
2022/03/30 12:25:20;;;;;;;19.93;10.50;;;;;;;;;;6287342;28;20052;-81
2022/03/30 12:28:33;;;;;;;22.58;10.88;;;;;;;;;;6285217;28;21379;-80
2022/03/30 12:31:37;;;;;;;22.65;10.90;;;;;;;;;;6287525;28;20048;-78
2022/03/30 12:34:40;;;;;;;19.42;10.43;;;;;;;;;;6303107;28;20040;-79
2022/03/30 12:37:45;;;;;;;19.77;10.48;;;;;;;;;;6288110;28;20044;-79
2022/03/30 12:40:52;;;;;;;21.42;10.93;;;;;;;;;;6311358;28;20040;-79
2022/03/30 12:44:02;;;;;;;19.20;10.48;;;;;;;;;;6311457;28;20040;-81
2022/03/30 12:47:05;;;;;;;18.92;10.18;;;;;;;;;;6320340;28;20745;-79
2022/03/30 12:50:09;;;;;;;22.25;9.68;;;;;;;;;;6319310;28;20126;-79
2022/03/30 12:53:15;;;;;;;19.48;9.60;;;;;;;;;;6318040;28;20524;-80
2022/03/30 12:56:20;;;;;;;20.23;10.60;;;;;;;;;;6309862;28;20220;-79
2022/03/30 12:59:28;;;;;;;19.27;10.40;;;;;;;;;;6307682;28;20520;-79
2022/03/30 13:02:31;;;;;;;22.90;10.10;;;;;;;;;;6295741;28;20067;-79
2022/03/30 13:05:34;;;;;;;19.23;10.18;;;;;;;;;;6311493;28;20044;-80
2022/03/30 13:08:39;;;;;;;17.42;9.98;;;;;;;;;;6312405;28;20036;-79
2022/03/30 13:11:47;;;;;;;20.38;11.18;;;;;;;;;;6286597;28;20047;-79
2022/03/30 13:14:49;;;;;;;21.40;10.68;;;;;;;;;;6300239;28;20043;-82
2022/03/30 13:17:58;;;;;;;18.95;9.95;;;;;;;;;;6306866;28;20052;-81
2022/03/30 13:21:15;;;;;;;18.67;9.85;;;;;;;;;;6337599;28;20054;-81
2022/03/30 13:24:21;;;;;;;17.92;9.02;;;;;;;;;;6343801;28;20655;-78
2022/03/30 13:27:24;;;;;;;20.88;9.05;;;;;;;;;;6328171;28;20177;-81
2022/03/30 13:30:28;;;;;;;20.73;9.30;;;;;;;;;;6324883;28;20114;-79
2022/03/30 13:33:29;;;;;;;21.95;9.68;;;;;;;;;;6340745;28;20052;-81
2022/03/30 13:36:31;;;;;;;22.60;10.52;;;;;;;;;;6341918;28;20121;-79
2022/03/30 13:39:33;;;;;;;21.98;11.05;;;;;;;;;;6343360;28;20095;-78
2022/03/30 13:42:34;;;;;;;24.92;10.52;;;;;;;;;;6343617;28;20046;-80
2022/03/30 13:45:37;;;;;;;21.88;10.43;;;;;;;;;;6341042;27;20122;-79
2022/03/30 13:48:38;;;;;;;21.73;9.98;;;;;;;;;;6350717;27;20111;-80
2022/03/30 13:51:40;;;;;;;19.70;9.85;;;;;;;;;;6369173;27;20074;-80
2022/03/30 13:54:42;;;;;;;20.80;10.27;;;;;;;;;;6355026;27;20076;-80
2022/03/30 13:57:44;;;;;;;20.55;9.82;;;;;;;;;;6318251;28;20829;-79
2022/03/30 14:00:45;;;;;;;21.38;9.50;;;;;;;;;;6322280;28;20126;-78
2022/03/30 14:03:47;;;;;;;17.55;9.48;;;;;;;;;;6309312;28;20508;-77
2022/03/30 14:06:49;;;;;;;21.67;10.13;;;;;;;;;;6303119;28;20505;-77
2022/03/30 14:09:52;;;;;;;19.53;10.07;;;;;;;;;;6304812;28;20134;-78
2022/03/30 14:12:53;;;;;;;18.37;9.73;;;;;;;;;;6322818;28;20047;-79
2022/03/30 14:15:55;;;;;;;17.95;9.02;;;;;;;;;;6328211;28;20104;-79
2022/03/30 14:18:57;;;;;;;19.13;10.55;;;;;;;;;;6321930;28;20498;-77
2022/03/30 14:21:59;;;;;;;19.63;10.02;;;;;;;;;;6322591;28;20125;-78
2022/03/30 14:25:01;;;;;;;21.15;10.35;;;;;;;;;;6321766;28;20072;-79
2022/03/30 14:28:05;;;;;;;21.08;10.18;;;;;;;;;;6324995;28;20521;-79
2022/03/30 14:31:07;;;;;;;19.80;10.05;;;;;;;;;;6317995;28;20121;-80
2022/03/30 14:34:08;;;;;;;21.42;10.30;;;;;;;;;;6330053;27;20058;-80
2022/03/30 14:37:10;;;;;;;20.38;9.90;;;;;;;;;;6366929;27;20654;-80
2022/03/30 14:40:13;;;;;;;19.25;10.45;;;;;;;;;;6295251;27;20044;-80
2022/03/30 14:43:14;;;;;;;18.52;9.65;;;;;;;;;;6292306;28;20048;-80
2022/03/30 14:46:16;;;;;;;19.65;9.80;;;;;;;;;;6317390;28;20576;-81
2022/03/30 14:49:18;;;;;;;20.83;10.13;;;;;;;;;;6343924;28;20047;-79
2022/03/30 14:52:19;;;;;;;19.25;9.63;;;;;;;;;;6317727;28;20100;-79
2022/03/30 14:55:21;;;;;;;15.95;8.98;;;;;;;;;;6336001;28;20036;-80
2022/03/30 14:58:23;;;;;;;19.80;8.85;;;;;;;;;;6323394;28;20048;-77
2022/03/30 15:01:25;;;;;;;21.75;9.73;;;;;;;;;;6324261;28;20089;-80
2022/03/30 15:04:27;;;;;;;19.95;9.93;;;;;;;;;;6325460;28;20040;-79
2022/03/30 15:07:28;;;;;;;20.27;9.55;;;;;;;;;;6342663;28;20067;-81
2022/03/30 15:10:30;;;;;;;16.83;9.25;;;;;;;;;;6316403;28;20130;-79
2022/03/30 15:13:32;;;;;;;16.63;9.30;;;;;;;;;;6306076;28;20171;-78
2022/03/30 15:16:33;;;;;;;19.33;9.70;;;;;;;;;;6341399;28;20126;-80
2022/03/30 15:19:35;;;;;;;18.52;8.88;;;;;;;;;;6343678;28;20048;-80
2022/03/30 15:22:40;;;;;;;17.10;8.43;;;;;;;;;;6329156;28;20063;-77
2022/03/30 15:25:42;;;;;;;17.92;9.20;;;;;;;;;;6336763;28;20046;-78
2022/03/30 15:28:43;;;;;;;18.40;8.93;;;;;;;;;;6337058;28;20185;-80
2022/03/30 15:31:45;;;;;;;18.45;9.68;;;;;;;;;;6316918;28;20048;-79
2022/03/30 15:34:47;;;;;;;18.95;9.95;;;;;;;;;;6331712;28;20116;-82
2022/03/30 15:37:48;;;;;;;20.63;9.73;;;;;;;;;;6325921;28;20129;-81
2022/03/30 15:40:51;;;;;;;19.13;10.75;;;;;;;;;;6317752;28;20040;-81
2022/03/30 15:43:52;;;;;;;23.00;9.97;;;;;;;;;;6302761;28;20047;-81
2022/03/30 15:46:54;;;;;;;20.52;9.95;;;;;;;;;;6296054;28;20062;-79
2022/03/30 15:49:56;;;;;;;19.15;10.38;;;;;;;;;;6299382;28;20109;-78
2022/03/30 15:53:02;;;;;;;24.90;12.85;;;;;;;;;;6319815;28;20132;-80
2022/03/30 15:56:04;;;;;;;24.20;11.13;;;;;;;;;;6317034;28;20044;-81
2022/03/30 15:59:10;;;;;;;20.30;10.65;;;;;;;;;;6302773;28;20040;-79
2022/03/30 16:02:16;;;;;;;21.45;10.15;;;;;;;;;;6318061;28;20052;-80
2022/03/30 16:05:19;;;;;;;21.25;11.20;;;;;;;;;;6334107;28;20270;-79
2022/03/30 16:15:02;;;;;;;21.98;10.93;;;;;;;;;;6340512;28;20047;-78
2022/03/30 16:18:03;;;;;;;23.27;10.55;;;;;;;;;;6341096;28;20051;-77
2022/03/30 16:21:05;;;;;;;21.88;10.20;;;;;;;;;;6290957;28;20222;-79
2022/03/30 16:24:14;;;;;;;23.45;11.27;;;;;;;;;;6296470;28;20032;-77
2022/03/30 16:27:16;;;;;;;24.45;10.18;;;;;;;;;;6293643;28;20209;-79
2022/03/30 16:30:17;;;;;;;24.55;11.27;;;;;;;;;;6303543;28;20536;-78
2022/03/30 16:33:19;;;;;;;22.60;11.27;;;;;;;;;;6309591;28;20116;-80
2022/03/30 16:36:22;;;;;;;23.33;11.90;;;;;;;;;;6305422;28;20123;-78
2022/03/30 16:39:30;;;;;;;22.23;11.30;;;;;;;;;;6288061;28;20048;-78
2022/03/30 16:42:36;;;;;;;22.98;11.40;;;;;;;;;;6285268;28;20048;-81
2022/03/30 16:45:40;;;;;;;26.75;12.13;;;;;;;;;;6302953;28;20429;-78
2022/03/30 16:48:41;;;;;;;20.67;10.85;;;;;;;;;;6335134;28;20149;-77
2022/03/30 16:51:45;;;;;;;20.98;10.77;;;;;;;;;;6323417;28;20510;-77
2022/03/30 16:54:46;;;;;;;24.63;11.05;;;;;;;;;;6321855;28;20059;-79
2022/03/30 16:57:48;;;;;;;23.15;10.85;;;;;;;;;;6333708;28;20092;-77
2022/03/30 17:00:53;;;;;;;21.13;11.57;;;;;;;;;;6284807;28;20044;-79
2022/03/30 17:03:55;;;;;;;24.25;11.57;;;;;;;;;;6290050;28;20044;-79
2022/03/30 17:06:56;;;;;;;23.13;10.75;;;;;;;;;;6305853;28;20659;-80
2022/03/30 17:09:58;;;;;;;23.25;10.90;;;;;;;;;;6290381;28;20178;-81
2022/03/30 17:13:00;;;;;;;24.58;11.48;;;;;;;;;;6294459;28;20040;-80
2022/03/30 17:16:01;;;;;;;25.10;11.50;;;;;;;;;;6311037;28;20047;-80
2022/03/30 17:19:05;;;;;;;27.15;11.32;;;;;;;;;;6314299;28;20068;-80
2022/03/30 17:22:13;;;;;;;22.70;11.35;;;;;;;;;;6313102;28;20042;-77
2022/03/30 17:25:17;;;;;;;26.50;11.98;;;;;;;;;;6308918;28;20048;-78
2022/03/30 17:28:18;;;;;;;25.52;12.00;;;;;;;;;;6312655;28;20105;-81
2022/03/30 17:31:20;;;;;;;25.20;12.35;;;;;;;;;;6291044;28;20076;-81
2022/03/30 17:34:22;;;;;;;27.77;11.85;;;;;;;;;;6301081;28;20050;-79
2022/03/30 17:37:23;;;;;;;28.85;11.18;;;;;;;;;;6316645;28;20049;-81
2022/03/30 17:40:28;;;;;;;23.45;11.20;;;;;;;;;;6310284;28;20101;-81
2022/03/30 17:43:29;;;;;;;27.42;13.82;;;;;;;;;;6310940;28;20048;-79
2022/03/30 17:46:33;;;;;;;25.58;11.55;;;;;;;;;;6309769;28;20146;-77
2022/03/30 17:52:56;;;;;;;25.23;11.35;;;;;;;;;;6311986;28;20071;-78
2022/03/30 17:56:00;;;;;;;24.70;10.63;;;;;;;;;;6313256;28;20044;-78
2022/03/30 17:59:02;;;;;;;25.02;11.10;;;;;;;;;;6306681;28;20076;-78
2022/03/30 18:02:09;;;;;;;29.05;12.60;;;;;;;;;;6290102;28;20044;-77
2022/03/30 18:05:12;;;;;;;26.42;13.70;;;;;;;;;;6313749;28;20844;-79
2022/03/30 18:08:14;;;;;;;34.17;18.15;;;;;;;;;;6309214;28;20044;-78
2022/03/30 18:11:17;;;;;;;24.23;11.73;;;;;;;;;;6322191;28;20069;-79
2022/03/30 18:14:19;;;;;;;25.52;11.07;;;;;;;;;;6339266;28;20059;-80